Terminal Aerodrome Forecast
Issued by NWS

Home | Current Version | Previous Version | Graphics & Text | Print | Product List | Glossary On
Versions: 1 2 3 4 5 6 7 8 9 10 11 12 13 14 15 16 17
000
FTUS43 KBIS 280540 AAA
TAFDIK
TAF AMD
KDIK 280540Z 2806/2906 27020G30KT P6SM VCSH BKN035
      TEMPO 2806/2808 3SM SHRA OVC025
     FM281200 27025G35KT P6SM SCT025
     FM281500 27030G45KT P6SM BKN040
     FM281700 26035G52KT P6SM BKN050
     FM290200 29020G30KT P6SM SCT050=

USA.gov is the U.S. government's official web portal to all federal, state and local government web resources and services.